Linden, Alabama
Current Conditions -  °F | °C
As of 11:55 AM on Monday 24 Nov 2014 (Local Time) from KDYA Reporting Station
Scattered Clouds Scattered Clouds  
Wind Chill: 67°   Ceiling: Unl
Heat Index: 67°   Visibility: 10mi
Dew Point: 48°   Wind: 7mph
Humidity: 49%   Direction: 280°W
Pressure: 29.86"   Gusts: NA
Location:  32.31°N, 87.8°W
Report Text: KDYA 241755Z AUTO 28006KT 10SM SCT038 20/09 A2986 RMK AO2 T01970087 10205 20172
Loading
Personal Weather Stations






























Interactive Weather Map New forecast layout! Learn more

10-Day Weather Forecast

Advertisements
Track Severe Weather on mobile